sensor_id;sensor_type;location;lat;lon;timestamp;pressure;altitude;pressure_sealevel;temperature;humidity
70011;BME280;59543;37.950;-122.338;2023-02-12T00:00:02;101098.88;;;12.69;48.00
70011;BME280;59543;37.950;-122.338;2023-02-12T00:02:28;101097.00;;;12.69;48.71
70011;BME280;59543;37.950;-122.338;2023-02-12T00:04:54;101111.69;;;12.67;48.41
70011;BME280;59543;37.950;-122.338;2023-02-12T00:07:20;101120.78;;;12.66;48.00
70011;BME280;59543;37.950;-122.338;2023-02-12T00:09:45;101120.16;;;12.72;46.66
70011;BME280;59543;37.950;-122.338;2023-02-12T00:12:14;101124.72;;;12.71;46.91
70011;BME280;59543;37.950;-122.338;2023-02-12T00:14:40;101131.78;;;12.54;47.97
70011;BME280;59543;37.950;-122.338;2023-02-12T00:17:06;101132.97;;;12.52;48.10
70011;BME280;59543;37.950;-122.338;2023-02-12T00:19:32;101131.50;;;12.57;47.93
70011;BME280;59543;37.950;-122.338;2023-02-12T00:21:58;101129.56;;;12.68;47.57
70011;BME280;59543;37.950;-122.338;2023-02-12T00:24:23;101132.47;;;12.56;44.98
70011;BME280;59543;37.950;-122.338;2023-02-12T00:26:50;101135.72;;;12.60;45.12
70011;BME280;59543;37.950;-122.338;2023-02-12T00:29:15;101140.25;;;12.42;46.01
70011;BME280;59543;37.950;-122.338;2023-02-12T00:31:41;101149.78;;;12.36;44.47
70011;BME280;59543;37.950;-122.338;2023-02-12T00:34:08;101155.22;;;12.54;44.29
70011;BME280;59543;37.950;-122.338;2023-02-12T00:36:34;101155.69;;;12.49;44.43
70011;BME280;59543;37.950;-122.338;2023-02-12T00:39:00;101149.22;;;12.60;45.44
70011;BME280;59543;37.950;-122.338;2023-02-12T00:41:26;101149.59;;;12.47;45.63
70011;BME280;59543;37.950;-122.338;2023-02-12T00:43:52;101147.44;;;12.51;45.76
70011;BME280;59543;37.950;-122.338;2023-02-12T00:46:21;101152.91;;;12.41;45.67
70011;BME280;59543;37.950;-122.338;2023-02-12T00:48:47;101160.38;;;12.47;45.41
70011;BME280;59543;37.950;-122.338;2023-02-12T00:51:13;101157.56;;;12.67;45.43
70011;BME280;59543;37.950;-122.338;2023-02-12T00:53:39;101164.47;;;12.51;49.33
70011;BME280;59543;37.950;-122.338;2023-02-12T00:56:04;101157.28;;;12.42;50.90
70011;BME280;59543;37.950;-122.338;2023-02-12T00:58:30;101167.84;;;12.35;52.03
70011;BME280;59543;37.950;-122.338;2023-02-12T01:00:56;101167.47;;;12.21;51.28
70011;BME280;59543;37.950;-122.338;2023-02-12T01:03:22;101178.44;;;12.19;51.98
70011;BME280;59543;37.950;-122.338;2023-02-12T01:05:48;101179.69;;;12.15;54.15
70011;BME280;59543;37.950;-122.338;2023-02-12T01:08:14;101183.41;;;12.14;55.18
70011;BME280;59543;37.950;-122.338;2023-02-12T01:10:41;101195.22;;;12.03;55.40
70011;BME280;59543;37.950;-122.338;2023-02-12T01:13:09;101193.53;;;12.02;56.84
70011;BME280;59543;37.950;-122.338;2023-02-12T01:15:36;101192.84;;;11.90;57.25
70011;BME280;59543;37.950;-122.338;2023-02-12T01:18:02;101189.16;;;11.82;57.17
70011;BME280;59543;37.950;-122.338;2023-02-12T01:20:28;101192.16;;;11.79;57.25
70011;BME280;59543;37.950;-122.338;2023-02-12T01:22:53;101196.28;;;11.63;57.92
70011;BME280;59543;37.950;-122.338;2023-02-12T01:25:19;101192.91;;;11.61;58.21
70011;BME280;59543;37.950;-122.338;2023-02-12T01:27:45;101195.31;;;11.55;58.33
70011;BME280;59543;37.950;-122.338;2023-02-12T01:30:11;101180.84;;;11.46;58.69
70011;BME280;59543;37.950;-122.338;2023-02-12T01:32:37;101177.22;;;11.37;59.33
70011;BME280;59543;37.950;-122.338;2023-02-12T01:35:03;101173.94;;;11.34;59.57
70011;BME280;59543;37.950;-122.338;2023-02-12T01:37:30;101171.69;;;11.29;59.95
70011;BME280;59543;37.950;-122.338;2023-02-12T01:39:55;101172.09;;;11.25;60.49
70011;BME280;59543;37.950;-122.338;2023-02-12T01:42:21;101171.13;;;11.26;60.84
70011;BME280;59543;37.950;-122.338;2023-02-12T01:47:31;101174.09;;;11.03;61.97
70011;BME280;59543;37.950;-122.338;2023-02-12T01:49:57;101186.59;;;11.04;62.48
70011;BME280;59543;37.950;-122.338;2023-02-12T01:52:27;101187.28;;;10.96;62.72
70011;BME280;59543;37.950;-122.338;2023-02-12T01:54:54;101187.28;;;10.87;63.31
70011;BME280;59543;37.950;-122.338;2023-02-12T01:57:22;101194.91;;;10.82;63.51
70011;BME280;59543;37.950;-122.338;2023-02-12T01:59:49;101204.53;;;10.74;63.54
70011;BME280;59543;37.950;-122.338;2023-02-12T02:02:17;101198.16;;;10.66;63.83
70011;BME280;59543;37.950;-122.338;2023-02-12T02:04:45;101201.38;;;10.60;64.12
70011;BME280;59543;37.950;-122.338;2023-02-12T02:07:12;101212.69;;;10.53;64.50
70011;BME280;59543;37.950;-122.338;2023-02-12T02:09:39;101213.81;;;10.51;64.40
70011;BME280;59543;37.950;-122.338;2023-02-12T02:12:05;101217.91;;;10.45;64.67
70011;BME280;59543;37.950;-122.338;2023-02-12T02:14:49;101221.94;;;10.30;65.65
70011;BME280;59543;37.950;-122.338;2023-02-12T02:17:23;101223.91;;;10.28;65.89
70011;BME280;59543;37.950;-122.338;2023-02-12T02:27:29;101223.44;;;9.71;68.12
70011;BME280;59543;37.950;-122.338;2023-02-12T02:35:31;101240.88;;;9.56;70.04
70011;BME280;59543;37.950;-122.338;2023-02-12T02:40:36;101254.06;;;8.95;73.46
70011;BME280;59543;37.950;-122.338;2023-02-12T02:43:06;101258.00;;;8.57;74.87
70011;BME280;59543;37.950;-122.338;2023-02-12T02:48:05;101258.84;;;8.68;74.98
70011;BME280;59543;37.950;-122.338;2023-02-12T02:50:34;101259.00;;;8.67;74.91
70011;BME280;59543;37.950;-122.338;2023-02-12T02:53:21;101258.50;;;8.51;75.58
70011;BME280;59543;37.950;-122.338;2023-02-12T02:55:52;101266.19;;;8.44;75.88
70011;BME280;59543;37.950;-122.338;2023-02-12T02:58:21;101264.19;;;8.23;77.38
70011;BME280;59543;37.950;-122.338;2023-02-12T03:00:55;101270.16;;;8.27;77.27
70011;BME280;59543;37.950;-122.338;2023-02-12T03:03:25;101273.56;;;7.95;77.82
70011;BME280;59543;37.950;-122.338;2023-02-12T03:05:54;101278.03;;;7.84;78.48
70011;BME280;59543;37.950;-122.338;2023-02-12T03:08:23;101279.25;;;7.91;78.31
70011;BME280;59543;37.950;-122.338;2023-02-12T03:10:55;101274.53;;;7.94;77.70
70011;BME280;59543;37.950;-122.338;2023-02-12T03:15:52;101271.72;;;7.96;77.47
70011;BME280;59543;37.950;-122.338;2023-02-12T03:18:33;101276.47;;;7.92;77.89
70011;BME280;59543;37.950;-122.338;2023-02-12T03:21:05;101281.22;;;7.89;77.83
70011;BME280;59543;37.950;-122.338;2023-02-12T03:23:38;101277.47;;;7.91;77.35
70011;BME280;59543;37.950;-122.338;2023-02-12T03:26:07;101282.91;;;7.90;77.42
70011;BME280;59543;37.950;-122.338;2023-02-12T03:28:35;101290.84;;;7.91;77.66
70011;BME280;59543;37.950;-122.338;2023-02-12T03:33:28;101290.50;;;7.61;78.69
70011;BME280;59543;37.950;-122.338;2023-02-12T03:36:00;101284.19;;;7.62;79.08
70011;BME280;59543;37.950;-122.338;2023-02-12T03:38:30;101287.09;;;7.59;78.82
70011;BME280;59543;37.950;-122.338;2023-02-12T03:43:29;101286.06;;;7.37;79.70
70011;BME280;59543;37.950;-122.338;2023-02-12T03:45:59;101297.53;;;7.50;79.25
70011;BME280;59543;37.950;-122.338;2023-02-12T03:48:32;101292.78;;;7.54;79.01
70011;BME280;59543;37.950;-122.338;2023-02-12T03:51:03;101302.09;;;7.37;79.59
70011;BME280;59543;37.950;-122.338;2023-02-12T03:53:29;101297.25;;;7.42;79.45
70011;BME280;59543;37.950;-122.338;2023-02-12T03:55:58;101300.78;;;7.43;79.81
70011;BME280;59543;37.950;-122.338;2023-02-12T03:58:27;101296.78;;;7.48;79.36
70011;BME280;59543;37.950;-122.338;2023-02-12T04:00:54;101306.88;;;7.45;79.49
70011;BME280;59543;37.950;-122.338;2023-02-12T04:03:20;101314.50;;;7.38;80.03
70011;BME280;59543;37.950;-122.338;2023-02-12T04:05:45;101312.59;;;7.40;79.83
70011;BME280;59543;37.950;-122.338;2023-02-12T04:08:11;101315.59;;;7.36;80.20
70011;BME280;59543;37.950;-122.338;2023-02-12T04:10:41;101314.59;;;7.37;80.26
70011;BME280;59543;37.950;-122.338;2023-02-12T04:13:15;101315.34;;;7.39;79.73
70011;BME280;59543;37.950;-122.338;2023-02-12T04:16:19;101313.66;;;7.38;79.61
70011;BME280;59543;37.950;-122.338;2023-02-12T04:18:39;101316.97;;;7.41;79.53
70011;BME280;59543;37.950;-122.338;2023-02-12T04:23:49;101316.78;;;7.31;79.65
70011;BME280;59543;37.950;-122.338;2023-02-12T04:34:15;101318.78;;;7.41;79.15
70011;BME280;59543;37.950;-122.338;2023-02-12T04:39:22;101318.41;;;7.34;78.92
70011;BME280;59543;37.950;-122.338;2023-02-12T04:41:49;101316.66;;;7.33;79.37
70011;BME280;59543;37.950;-122.338;2023-02-12T04:44:21;101320.56;;;7.29;79.18
70011;BME280;59543;37.950;-122.338;2023-02-12T04:46:47;101326.34;;;7.23;79.47
70011;BME280;59543;37.950;-122.338;2023-02-12T04:49:15;101324.53;;;7.23;79.29
70011;BME280;59543;37.950;-122.338;2023-02-12T04:51:41;101323.69;;;7.23;79.29
70011;BME280;59543;37.950;-122.338;2023-02-12T04:54:07;101319.34;;;7.09;79.25
70011;BME280;59543;37.950;-122.338;2023-02-12T04:56:33;101336.91;;;7.00;79.85
70011;BME280;59543;37.950;-122.338;2023-02-12T04:58:59;101333.28;;;7.01;80.17
70011;BME280;59543;37.950;-122.338;2023-02-12T05:01:25;101334.44;;;6.97;80.52
70011;BME280;59543;37.950;-122.338;2023-02-12T05:03:51;101326.88;;;6.91;80.53
70011;BME280;59543;37.950;-122.338;2023-02-12T05:06:17;101324.16;;;7.04;79.83
70011;BME280;59543;37.950;-122.338;2023-02-12T05:08:43;101326.25;;;6.87;80.30
70011;BME280;59543;37.950;-122.338;2023-02-12T05:11:09;101322.38;;;6.92;80.18
70011;BME280;59543;37.950;-122.338;2023-02-12T05:13:35;101336.09;;;6.87;80.85
70011;BME280;59543;37.950;-122.338;2023-02-12T05:16:04;101333.41;;;6.87;80.43
70011;BME280;59543;37.950;-122.338;2023-02-12T05:18:31;101331.81;;;6.84;80.01
70011;BME280;59543;37.950;-122.338;2023-02-12T05:20:57;101332.56;;;6.86;79.86
70011;BME280;59543;37.950;-122.338;2023-02-12T05:23:27;101329.91;;;6.86;79.52
70011;BME280;59543;37.950;-122.338;2023-02-12T05:25:53;101327.00;;;6.90;79.52
70011;BME280;59543;37.950;-122.338;2023-02-12T05:28:19;101318.19;;;7.00;78.91
70011;BME280;59543;37.950;-122.338;2023-02-12T05:30:45;101336.63;;;6.92;78.93
70011;BME280;59543;37.950;-122.338;2023-02-12T05:33:10;101331.19;;;6.81;79.28
70011;BME280;59543;37.950;-122.338;2023-02-12T05:35:36;101325.53;;;6.73;79.44
70011;BME280;59543;37.950;-122.338;2023-02-12T05:38:02;101332.13;;;6.80;79.08
70011;BME280;59543;37.950;-122.338;2023-02-12T05:40:28;101329.91;;;6.74;78.84
70011;BME280;59543;37.950;-122.338;2023-02-12T05:42:54;101326.38;;;6.73;78.82
70011;BME280;59543;37.950;-122.338;2023-02-12T05:45:20;101333.00;;;6.68;79.18
70011;BME280;59543;37.950;-122.338;2023-02-12T05:47:45;101336.88;;;6.63;79.26
70011;BME280;59543;37.950;-122.338;2023-02-12T05:50:11;101336.47;;;6.57;79.41
70011;BME280;59543;37.950;-122.338;2023-02-12T05:52:37;101337.31;;;6.57;79.55
70011;BME280;59543;37.950;-122.338;2023-02-12T05:55:03;101340.63;;;6.48;79.82
70011;BME280;59543;37.950;-122.338;2023-02-12T05:57:29;101342.34;;;6.49;79.73
70011;BME280;59543;37.950;-122.338;2023-02-12T05:59:55;101352.41;;;6.46;80.05
70011;BME280;59543;37.950;-122.338;2023-02-12T06:02:20;101339.44;;;6.52;79.48
70011;BME280;59543;37.950;-122.338;2023-02-12T06:04:46;101346.06;;;6.47;79.43
70011;BME280;59543;37.950;-122.338;2023-02-12T06:07:12;101340.00;;;6.45;79.69
70011;BME280;59543;37.950;-122.338;2023-02-12T06:09:38;101340.00;;;6.19;80.28
70011;BME280;59543;37.950;-122.338;2023-02-12T06:12:04;101339.47;;;6.14;80.85
70011;BME280;59543;37.950;-122.338;2023-02-12T06:14:30;101337.44;;;6.17;80.35
70011;BME280;59543;37.950;-122.338;2023-02-12T06:16:55;101334.00;;;6.15;80.63
70011;BME280;59543;37.950;-122.338;2023-02-12T06:19:21;101333.47;;;6.10;80.62
70011;BME280;59543;37.950;-122.338;2023-02-12T06:21:48;101327.69;;;6.16;80.20
70011;BME280;59543;37.950;-122.338;2023-02-12T06:24:15;101332.31;;;6.14;80.73
70011;BME280;59543;37.950;-122.338;2023-02-12T06:26:41;101338.03;;;5.95;81.18
70011;BME280;59543;37.950;-122.338;2023-02-12T06:29:07;101350.81;;;5.78;81.95
70011;BME280;59543;37.950;-122.338;2023-02-12T06:31:34;101334.59;;;5.81;81.68
70011;BME280;59543;37.950;-122.338;2023-02-12T06:34:02;101333.22;;;5.88;81.27
70011;BME280;59543;37.950;-122.338;2023-02-12T06:36:28;101332.59;;;5.97;80.84
70011;BME280;59543;37.950;-122.338;2023-02-12T06:38:54;101346.44;;;5.89;81.08
70011;BME280;59543;37.950;-122.338;2023-02-12T06:41:20;101333.84;;;5.79;81.54
70011;BME280;59543;37.950;-122.338;2023-02-12T06:43:46;101326.88;;;5.76;81.43
70011;BME280;59543;37.950;-122.338;2023-02-12T06:46:12;101330.59;;;5.73;81.57
70011;BME280;59543;37.950;-122.338;2023-02-12T06:48:38;101334.09;;;5.61;81.53
70011;BME280;59543;37.950;-122.338;2023-02-12T06:51:05;101330.81;;;5.70;81.10
70011;BME280;59543;37.950;-122.338;2023-02-12T06:53:31;101335.28;;;5.57;81.79
70011;BME280;59543;37.950;-122.338;2023-02-12T06:55:58;101337.94;;;5.57;81.78
70011;BME280;59543;37.950;-122.338;2023-02-12T06:58:24;101337.63;;;5.35;82.26
70011;BME280;59543;37.950;-122.338;2023-02-12T07:00:50;101336.19;;;5.43;82.42
70011;BME280;59543;37.950;-122.338;2023-02-12T07:03:16;101340.34;;;5.20;83.13
70011;BME280;59543;37.950;-122.338;2023-02-12T07:05:42;101336.13;;;5.31;82.97
70011;BME280;59543;37.950;-122.338;2023-02-12T07:08:07;101335.50;;;5.27;83.23
70011;BME280;59543;37.950;-122.338;2023-02-12T07:10:33;101326.06;;;5.21;83.12
70011;BME280;59543;37.950;-122.338;2023-02-12T07:12:59;101325.31;;;5.19;83.28
70011;BME280;59543;37.950;-122.338;2023-02-12T07:15:25;101325.63;;;5.15;83.88
70011;BME280;59543;37.950;-122.338;2023-02-12T07:17:51;101328.91;;;5.33;83.18
70011;BME280;59543;37.950;-122.338;2023-02-12T07:20:17;101330.59;;;5.34;82.49
70011;BME280;59543;37.950;-122.338;2023-02-12T07:22:42;101347.50;;;5.20;82.52
70011;BME280;59543;37.950;-122.338;2023-02-12T07:25:08;101351.38;;;5.28;82.83
70011;BME280;59543;37.950;-122.338;2023-02-12T07:27:35;101358.72;;;5.79;80.94
70011;BME280;59543;37.950;-122.338;2023-02-12T07:30:02;101366.63;;;5.81;81.30
70011;BME280;59543;37.950;-122.338;2023-02-12T07:32:28;101365.66;;;5.82;84.10
70011;BME280;59543;37.950;-122.338;2023-02-12T07:34:56;101366.06;;;5.76;84.99
70011;BME280;59543;37.950;-122.338;2023-02-12T07:37:21;101360.81;;;5.74;85.49
70011;BME280;59543;37.950;-122.338;2023-02-12T07:39:47;101366.56;;;5.68;85.63
70011;BME280;59543;37.950;-122.338;2023-02-12T07:42:14;101363.25;;;5.64;85.66
70011;BME280;59543;37.950;-122.338;2023-02-12T07:44:39;101367.38;;;5.56;85.80
70011;BME280;59543;37.950;-122.338;2023-02-12T07:47:05;101363.22;;;5.52;85.82
70011;BME280;59543;37.950;-122.338;2023-02-12T07:49:31;101358.44;;;5.57;85.50
70011;BME280;59543;37.950;-122.338;2023-02-12T07:51:57;101358.53;;;5.55;84.97
70011;BME280;59543;37.950;-122.338;2023-02-12T07:54:23;101347.09;;;5.53;84.51
70011;BME280;59543;37.950;-122.338;2023-02-12T07:56:48;101357.69;;;5.55;84.64
70011;BME280;59543;37.950;-122.338;2023-02-12T07:59:16;101363.41;;;5.48;84.40
70011;BME280;59543;37.950;-122.338;2023-02-12T08:01:46;101360.09;;;5.45;83.84
70011;BME280;59543;37.950;-122.338;2023-02-12T08:04:13;101360.22;;;5.56;83.64
70011;BME280;59543;37.950;-122.338;2023-02-12T08:06:40;101360.44;;;5.53;83.81
70011;BME280;59543;37.950;-122.338;2023-02-12T08:09:07;101351.97;;;5.46;83.56
70011;BME280;59543;37.950;-122.338;2023-02-12T08:11:34;101363.50;;;5.47;83.75
70011;BME280;59543;37.950;-122.338;2023-02-12T08:14:01;101361.34;;;5.39;84.16
70011;BME280;59543;37.950;-122.338;2023-02-12T08:16:27;101365.28;;;5.61;83.95
70011;BME280;59543;37.950;-122.338;2023-02-12T08:18:54;101369.19;;;5.55;84.15
70011;BME280;59543;37.950;-122.338;2023-02-12T08:21:20;101371.09;;;5.53;84.20
70011;BME280;59543;37.950;-122.338;2023-02-12T08:23:47;101369.91;;;5.44;84.83
70011;BME280;59543;37.950;-122.338;2023-02-12T08:26:20;101374.78;;;5.38;84.57
70011;BME280;59543;37.950;-122.338;2023-02-12T08:28:47;101380.31;;;5.35;84.45
70011;BME280;59543;37.950;-122.338;2023-02-12T08:31:14;101381.97;;;5.50;84.96
70011;BME280;59543;37.950;-122.338;2023-02-12T08:33:40;101379.69;;;5.58;83.81
70011;BME280;59543;37.950;-122.338;2023-02-12T08:36:09;101376.97;;;5.45;83.52
70011;BME280;59543;37.950;-122.338;2023-02-12T08:38:36;101389.09;;;5.37;84.50
70011;BME280;59543;37.950;-122.338;2023-02-12T08:41:04;101381.88;;;5.24;85.89
70011;BME280;59543;37.950;-122.338;2023-02-12T08:43:30;101387.03;;;5.13;86.97
70011;BME280;59543;37.950;-122.338;2023-02-12T08:46:06;101386.78;;;5.03;86.57
70011;BME280;59543;37.950;-122.338;2023-02-12T08:48:32;101372.09;;;5.11;87.34
70011;BME280;59543;37.950;-122.338;2023-02-12T08:51:05;101373.81;;;5.12;87.32
70011;BME280;59543;37.950;-122.338;2023-02-12T08:53:31;101373.72;;;5.13;86.23
70011;BME280;59543;37.950;-122.338;2023-02-12T08:55:57;101376.56;;;5.10;86.24
70011;BME280;59543;37.950;-122.338;2023-02-12T08:58:23;101366.03;;;5.36;85.42
70011;BME280;59543;37.950;-122.338;2023-02-12T09:00:49;101360.16;;;5.31;86.09
70011;BME280;59543;37.950;-122.338;2023-02-12T09:03:15;101359.69;;;5.51;86.66
70011;BME280;59543;37.950;-122.338;2023-02-12T09:05:40;101366.44;;;5.57;86.30
70011;BME280;59543;37.950;-122.338;2023-02-12T09:08:06;101359.50;;;5.54;85.44
70011;BME280;59543;37.950;-122.338;2023-02-12T09:10:33;101350.22;;;5.60;84.71
70011;BME280;59543;37.950;-122.338;2023-02-12T09:12:58;101352.22;;;5.56;84.93
70011;BME280;59543;37.950;-122.338;2023-02-12T09:15:24;101347.91;;;5.41;85.52
70011;BME280;59543;37.950;-122.338;2023-02-12T09:17:50;101346.88;;;5.29;86.04
70011;BME280;59543;37.950;-122.338;2023-02-12T09:20:16;101347.97;;;5.26;85.18
70011;BME280;59543;37.950;-122.338;2023-02-12T09:22:42;101355.03;;;5.13;86.27
70011;BME280;59543;37.950;-122.338;2023-02-12T09:25:08;101359.16;;;5.04;86.71
70011;BME280;59543;37.950;-122.338;2023-02-12T09:27:33;101363.59;;;5.33;86.13
70011;BME280;59543;37.950;-122.338;2023-02-12T09:29:59;101361.00;;;5.31;86.11
70011;BME280;59543;37.950;-122.338;2023-02-12T09:32:25;101367.50;;;5.27;85.79
70011;BME280;59543;37.950;-122.338;2023-02-12T09:34:51;101361.09;;;5.02;86.67
70011;BME280;59543;37.950;-122.338;2023-02-12T09:37:17;101376.50;;;4.83;87.77
70011;BME280;59543;37.950;-122.338;2023-02-12T09:39:42;101386.72;;;4.91;88.91
70011;BME280;59543;37.950;-122.338;2023-02-12T09:47:20;101407.34;;;5.01;88.61
70011;BME280;59543;37.950;-122.338;2023-02-12T09:52:18;101405.56;;;4.88;89.27
70011;BME280;59543;37.950;-122.338;2023-02-12T09:54:44;101404.31;;;4.79;89.20
70011;BME280;59543;37.950;-122.338;2023-02-12T09:57:15;101416.09;;;4.75;90.30
70011;BME280;59543;37.950;-122.338;2023-02-12T09:59:44;101408.50;;;4.97;89.63
70011;BME280;59543;37.950;-122.338;2023-02-12T10:02:13;101410.66;;;5.05;88.18
70011;BME280;59543;37.950;-122.338;2023-02-12T10:04:40;101409.28;;;4.99;87.40
70011;BME280;59543;37.950;-122.338;2023-02-12T10:09:43;101423.91;;;4.78;88.15
70011;BME280;59543;37.950;-122.338;2023-02-12T10:12:15;101416.13;;;4.61;88.00
70011;BME280;59543;37.950;-122.338;2023-02-12T10:20:14;101406.47;;;4.29;90.73
70011;BME280;59543;37.950;-122.338;2023-02-12T10:25:16;101396.34;;;4.20;89.24
70011;BME280;59543;37.950;-122.338;2023-02-12T10:27:53;101400.72;;;4.07;90.57
70011;BME280;59543;37.950;-122.338;2023-02-12T10:33:11;101384.38;;;4.13;89.68
70011;BME280;59543;37.950;-122.338;2023-02-12T10:35:41;101393.69;;;4.20;89.24
70011;BME280;59543;37.950;-122.338;2023-02-12T10:38:22;101390.84;;;4.23;88.97
70011;BME280;59543;37.950;-122.338;2023-02-12T10:40:50;101386.84;;;4.16;88.73
70011;BME280;59543;37.950;-122.338;2023-02-12T10:43:19;101387.44;;;4.21;88.38
70011;BME280;59543;37.950;-122.338;2023-02-12T10:45:44;101388.28;;;4.22;87.68
70011;BME280;59543;37.950;-122.338;2023-02-12T10:50:50;101382.44;;;4.15;87.47
70011;BME280;59543;37.950;-122.338;2023-02-12T10:53:21;101382.44;;;4.15;87.56
70011;BME280;59543;37.950;-122.338;2023-02-12T10:55:47;101390.63;;;4.12;86.86
70011;BME280;59543;37.950;-122.338;2023-02-12T10:58:17;101384.38;;;4.13;87.00
70011;BME280;59543;37.950;-122.338;2023-02-12T11:00:44;101386.84;;;4.16;87.73
70011;BME280;59543;37.950;-122.338;2023-02-12T11:05:36;101382.16;;;4.05;87.46
70011;BME280;59543;37.950;-122.338;2023-02-12T11:08:03;101374.16;;;4.05;87.60
70011;BME280;59543;37.950;-122.338;2023-02-12T11:12:57;101366.19;;;4.05;87.49
70011;BME280;59543;37.950;-122.338;2023-02-12T11:15:24;101367.91;;;4.06;87.96
70011;BME280;59543;37.950;-122.338;2023-02-12T11:20:23;101371.78;;;4.01;88.21
70011;BME280;59543;37.950;-122.338;2023-02-12T11:22:54;101371.88;;;3.99;87.98
70011;BME280;59543;37.950;-122.338;2023-02-12T11:25:21;101368.00;;;4.05;87.80
70011;BME280;59543;37.950;-122.338;2023-02-12T11:28:04;101365.69;;;3.99;88.24
70011;BME280;59543;37.950;-122.338;2023-02-12T11:30:30;101369.88;;;4.03;88.39
70011;BME280;59543;37.950;-122.338;2023-02-12T11:36:10;101362.97;;;4.00;89.51
70011;BME280;59543;37.950;-122.338;2023-02-12T11:38:38;101374.28;;;4.04;88.08
70011;BME280;59543;37.950;-122.338;2023-02-12T11:41:21;101368.09;;;4.03;87.77
70011;BME280;59543;37.950;-122.338;2023-02-12T11:43:48;101367.75;;;3.94;88.35
70011;BME280;59543;37.950;-122.338;2023-02-12T11:46:19;101370.44;;;3.94;86.89
70011;BME280;59543;37.950;-122.338;2023-02-12T11:48:45;101368.91;;;3.89;87.48
70011;BME280;59543;37.950;-122.338;2023-02-12T11:51:17;101364.63;;;3.87;87.87
70011;BME280;59543;37.950;-122.338;2023-02-12T11:53:46;101363.59;;;3.89;89.08
70011;BME280;59543;37.950;-122.338;2023-02-12T11:56:14;101375.56;;;3.82;89.66
70011;BME280;59543;37.950;-122.338;2023-02-12T11:58:40;101371.56;;;3.89;89.34
70011;BME280;59543;37.950;-122.338;2023-02-12T12:01:11;101374.03;;;3.93;89.35
70011;BME280;59543;37.950;-122.338;2023-02-12T12:04:10;101373.44;;;3.87;88.92
70011;BME280;59543;37.950;-122.338;2023-02-12T12:06:35;101377.84;;;3.88;89.32
70011;BME280;59543;37.950;-122.338;2023-02-12T12:09:23;101374.13;;;3.91;88.85
70011;BME280;59543;37.950;-122.338;2023-02-12T12:12:14;101373.78;;;3.97;89.13
70011;BME280;59543;37.950;-122.338;2023-02-12T12:14:35;101367.59;;;3.97;89.61
70011;BME280;59543;37.950;-122.338;2023-02-12T12:17:24;101367.91;;;4.06;90.23
70011;BME280;59543;37.950;-122.338;2023-02-12T12:20:20;101374.28;;;4.18;90.11
70011;BME280;59543;37.950;-122.338;2023-02-12T12:22:54;101374.13;;;4.21;91.10
70011;BME280;59543;37.950;-122.338;2023-02-12T12:25:26;101375.84;;;4.22;91.08
70011;BME280;59543;37.950;-122.338;2023-02-12T12:30:44;101372.97;;;4.25;91.50
70011;BME280;59543;37.950;-122.338;2023-02-12T12:38:44;101367.47;;;4.57;90.79
70011;BME280;59543;37.950;-122.338;2023-02-12T12:43:42;101372.22;;;4.80;92.08
70011;BME280;59543;37.950;-122.338;2023-02-12T12:48:43;101376.13;;;4.89;92.76
70011;BME280;59543;37.950;-122.338;2023-02-12T13:09:38;101398.16;;;5.20;90.43
70011;BME280;59543;37.950;-122.338;2023-02-12T13:14:48;101415.44;;;5.41;89.03
70011;BME280;59543;37.950;-122.338;2023-02-12T13:20:14;101405.50;;;5.31;89.48
70011;BME280;59543;37.950;-122.338;2023-02-12T13:27:47;101406.31;;;5.45;87.85
70011;BME280;59543;37.950;-122.338;2023-02-12T13:32:40;101406.34;;;5.31;88.46
70011;BME280;59543;37.950;-122.338;2023-02-12T13:35:14;101411.31;;;5.23;88.24
70011;BME280;59543;37.950;-122.338;2023-02-12T13:37:41;101421.81;;;5.12;87.88
70011;BME280;59543;37.950;-122.338;2023-02-12T13:40:18;101422.03;;;4.94;88.47
70011;BME280;59543;37.950;-122.338;2023-02-12T13:42:58;101404.41;;;5.06;88.18
70011;BME280;59543;37.950;-122.338;2023-02-12T13:45:34;101410.78;;;5.03;88.58
70011;BME280;59543;37.950;-122.338;2023-02-12T13:50:35;101411.81;;;5.15;87.86
70011;BME280;59543;37.950;-122.338;2023-02-12T13:55:38;101430.41;;;4.88;90.26
70011;BME280;59543;37.950;-122.338;2023-02-12T14:03:15;101431.81;;;5.08;88.78
70011;BME280;59543;37.950;-122.338;2023-02-12T14:05:47;101432.97;;;5.04;89.03
70011;BME280;59543;37.950;-122.338;2023-02-12T14:08:30;101440.97;;;4.90;89.94
70011;BME280;59543;37.950;-122.338;2023-02-12T14:11:03;101439.66;;;4.97;90.61
70011;BME280;59543;37.950;-122.338;2023-02-12T14:13:30;101438.69;;;4.98;89.57
70011;BME280;59543;37.950;-122.338;2023-02-12T14:15:59;101435.81;;;5.01;89.35
70011;BME280;59543;37.950;-122.338;2023-02-12T14:18:42;101445.16;;;4.94;90.38
70011;BME280;59543;37.950;-122.338;2023-02-12T14:23:43;101441.63;;;4.93;90.49
70011;BME280;59543;37.950;-122.338;2023-02-12T14:26:15;101443.94;;;4.99;89.83
70011;BME280;59543;37.950;-122.338;2023-02-12T14:33:45;101441.91;;;4.89;89.51
70011;BME280;59543;37.950;-122.338;2023-02-12T14:36:17;101452.78;;;4.86;90.63
70011;BME280;59543;37.950;-122.338;2023-02-12T14:49:17;101445.25;;;4.64;90.85
70011;BME280;59543;37.950;-122.338;2023-02-12T14:51:51;101434.00;;;4.58;90.63
70011;BME280;59543;37.950;-122.338;2023-02-12T14:56:53;101432.31;;;4.57;90.34
70011;BME280;59543;37.950;-122.338;2023-02-12T14:59:23;101439.72;;;4.67;90.36
70011;BME280;59543;37.950;-122.338;2023-02-12T15:01:50;101446.84;;;4.66;90.13
70011;BME280;59543;37.950;-122.338;2023-02-12T15:04:26;101451.50;;;4.63;89.79